createdAt,value
2023-10-09T00:02:12.204Z,18.65
2023-10-09T00:04:43.161Z,18.32
2023-10-09T00:07:13.081Z,18.27
2023-10-09T00:09:49.711Z,18.37
2023-10-09T00:12:23.876Z,18.35
2023-10-09T00:14:57.276Z,18.46
2023-10-09T00:17:25.409Z,18.46
2023-10-09T00:19:53.582Z,18.55
2023-10-09T00:22:27.343Z,18.68
2023-10-09T00:25:11.829Z,18.85
2023-10-09T00:27:44.420Z,18.58
2023-10-09T00:30:20.096Z,18.59
2023-10-09T00:32:53.876Z,18.73
2023-10-09T00:35:41.581Z,18.20
2023-10-09T00:38:21.000Z,18.49
2023-10-09T00:40:57.969Z,18.56
2023-10-09T00:43:29.707Z,18.55
2023-10-09T00:46:26.622Z,18.45
2023-10-09T00:49:02.193Z,18.68
2023-10-09T00:51:36.775Z,18.65
2023-10-09T00:54:09.223Z,18.26
2023-10-09T00:56:40.586Z,18.35
2023-10-09T00:59:16.148Z,18.60
2023-10-09T01:01:58.265Z,18.46
2023-10-09T01:04:30.877Z,18.79
2023-10-09T01:07:31.415Z,18.63
2023-10-09T01:10:00.377Z,18.64
2023-10-09T01:12:30.182Z,18.90
2023-10-09T01:15:00.866Z,18.76
2023-10-09T01:17:37.716Z,18.94
2023-10-09T01:20:06.358Z,18.92
2023-10-09T01:22:33.791Z,18.92
2023-10-09T01:25:01.109Z,18.71
2023-10-09T01:27:33.553Z,18.59
2023-10-09T01:30:01.548Z,18.33
2023-10-09T01:32:29.151Z,18.36
2023-10-09T01:34:58.749Z,18.45
2023-10-09T01:37:32.059Z,18.22
2023-10-09T01:40:16.602Z,18.32
2023-10-09T01:42:46.890Z,18.04
2023-10-09T01:45:28.602Z,18.14
2023-10-09T01:47:56.461Z,18.04
2023-10-09T01:50:28.200Z,18.01
2023-10-09T01:52:56.698Z,18.17
2023-10-09T01:55:38.858Z,18.25
2023-10-09T01:58:18.355Z,18.30
2023-10-09T02:00:50.738Z,18.59
2023-10-09T02:03:19.689Z,18.64
2023-10-09T02:05:47.212Z,18.30
2023-10-09T02:08:16.604Z,18.20
2023-10-09T02:10:48.970Z,18.20
2023-10-09T02:13:18.383Z,18.11
2023-10-09T02:15:52.979Z,18.05
2023-10-09T02:18:24.700Z,17.96
2023-10-09T02:21:10.150Z,18.00
2023-10-09T02:23:46.444Z,18.02
2023-10-09T02:26:33.466Z,18.20
2023-10-09T02:29:01.672Z,18.07
2023-10-09T02:31:41.725Z,18.09
2023-10-09T02:34:09.832Z,18.18
2023-10-09T02:36:50.112Z,18.28
2023-10-09T02:39:26.392Z,18.17
2023-10-09T02:42:01.427Z,18.27
2023-10-09T02:44:33.713Z,18.26
2023-10-09T02:47:06.326Z,18.24
2023-10-09T02:49:35.362Z,18.09
2023-10-09T02:52:07.927Z,18.00
2023-10-09T02:54:43.022Z,18.07
2023-10-09T02:57:16.847Z,18.34
2023-10-09T02:59:46.184Z,17.78
2023-10-09T03:02:13.792Z,17.60
2023-10-09T03:04:43.013Z,17.50
2023-10-09T03:07:11.764Z,17.43
2023-10-09T03:09:39.362Z,17.33
2023-10-09T03:12:10.955Z,17.27
2023-10-09T03:14:42.665Z,17.28
2023-10-09T03:17:13.796Z,17.31
2023-10-09T03:19:44.534Z,17.35
2023-10-09T03:22:13.074Z,17.28
2023-10-09T03:24:48.791Z,17.29
2023-10-09T03:27:19.715Z,17.21
2023-10-09T03:29:54.945Z,17.14
2023-10-09T03:32:22.700Z,17.24
2023-10-09T03:34:53.017Z,17.19
2023-10-09T03:37:29.606Z,17.25
2023-10-09T03:39:56.956Z,17.23
2023-10-09T03:42:25.666Z,17.37
2023-10-09T03:44:54.665Z,17.41
2023-10-09T03:47:23.996Z,17.34
2023-10-09T03:49:55.529Z,17.29
2023-10-09T03:52:26.999Z,17.43
2023-10-09T03:54:56.133Z,17.50
2023-10-09T03:57:24.762Z,17.57
2023-10-09T03:59:53.241Z,17.64
2023-10-09T04:02:23.667Z,17.75
2023-10-09T04:04:52.344Z,17.67
2023-10-09T04:07:19.944Z,17.70
2023-10-09T04:09:49.782Z,17.57
2023-10-09T04:12:26.429Z,17.53
2023-10-09T04:15:03.376Z,17.63
2023-10-09T04:17:34.443Z,17.73
2023-10-09T04:20:20.521Z,17.68
2023-10-09T04:23:00.939Z,17.78
2023-10-09T04:25:43.288Z,17.81
2023-10-09T04:28:23.134Z,17.72
2023-10-09T04:30:57.261Z,17.73
2023-10-09T04:33:33.781Z,17.74
2023-10-09T04:36:20.611Z,17.62
2023-10-09T04:39:03.729Z,17.22
2023-10-09T04:41:52.395Z,17.30
2023-10-09T04:44:21.735Z,17.28
2023-10-09T04:47:12.063Z,17.15
2023-10-09T04:49:54.149Z,17.13
2023-10-09T04:52:30.573Z,17.06
2023-10-09T04:55:08.390Z,17.05
2023-10-09T04:57:42.999Z,17.13
2023-10-09T05:00:44.328Z,17.18
2023-10-09T05:03:13.543Z,17.12
2023-10-09T05:05:44.440Z,17.28
2023-10-09T05:08:28.957Z,17.14
2023-10-09T05:10:59.650Z,16.95
2023-10-09T05:13:42.444Z,16.97
2023-10-09T05:16:20.087Z,17.11
2023-10-09T05:19:00.861Z,17.19
2023-10-09T05:21:33.007Z,17.10
2023-10-09T05:24:14.406Z,17.15
2023-10-09T05:26:49.216Z,17.18
2023-10-09T05:29:35.359Z,17.23
2023-10-09T05:32:14.898Z,17.25
2023-10-09T05:35:00.137Z,17.41
2023-10-09T05:37:44.259Z,17.39
2023-10-09T05:40:32.288Z,17.33
2023-10-09T05:43:00.891Z,17.42
2023-10-09T05:45:51.473Z,17.32
2023-10-09T05:48:19.396Z,17.17
2023-10-09T05:51:05.608Z,17.45
2023-10-09T05:53:45.120Z,17.35
2023-10-09T05:56:31.792Z,17.39
2023-10-09T05:59:17.842Z,17.41
2023-10-09T06:02:03.346Z,17.53
2023-10-09T06:04:49.182Z,17.50
2023-10-09T06:07:24.308Z,17.64
2023-10-09T06:09:55.731Z,17.61
2023-10-09T06:12:31.353Z,17.71
2023-10-09T06:14:59.326Z,17.59
2023-10-09T06:17:32.445Z,17.78
2023-10-09T06:20:12.800Z,17.60
2023-10-09T06:22:58.196Z,17.61
2023-10-09T06:25:34.185Z,17.76
2023-10-09T06:28:02.651Z,17.76
2023-10-09T06:30:35.745Z,17.84
2023-10-09T06:33:21.115Z,17.99
2023-10-09T06:35:54.761Z,17.99
2023-10-09T06:38:34.533Z,18.18
2023-10-09T06:41:07.578Z,18.21
2023-10-09T06:43:37.838Z,18.29
2023-10-09T06:46:23.398Z,18.26
2023-10-09T06:48:57.448Z,18.40
2023-10-09T06:51:25.642Z,18.61
2023-10-09T06:53:56.462Z,18.67
2023-10-09T06:56:31.834Z,18.91
2023-10-09T06:59:09.084Z,18.88
2023-10-09T07:01:47.180Z,19.15
2023-10-09T07:04:38.219Z,18.86
2023-10-09T07:07:17.689Z,19.12
2023-10-09T07:10:05.490Z,19.07
2023-10-09T07:12:44.909Z,19.25
2023-10-09T07:15:12.968Z,19.08
2023-10-09T07:17:40.471Z,19.26
2023-10-09T07:20:15.749Z,19.21
2023-10-09T07:22:57.313Z,19.25
2023-10-09T07:25:42.054Z,19.39
2023-10-09T07:28:30.649Z,19.38
2023-10-09T07:31:01.284Z,19.40
2023-10-09T07:34:03.669Z,19.51
2023-10-09T07:36:35.707Z,19.65
2023-10-09T07:39:14.329Z,19.73
2023-10-09T07:42:05.941Z,19.70
2023-10-09T07:44:38.422Z,19.86
2023-10-09T07:47:18.411Z,19.94
2023-10-09T07:49:52.504Z,20.04
2023-10-09T07:52:22.828Z,20.16
2023-10-09T07:55:03.607Z,20.19
2023-10-09T07:57:39.700Z,20.24
2023-10-09T08:00:33.693Z,20.33
2023-10-09T08:03:01.983Z,20.44
2023-10-09T08:05:45.505Z,20.49
2023-10-09T08:08:38.196Z,20.48
2023-10-09T08:11:27.839Z,20.58
2023-10-09T08:13:58.312Z,20.82
2023-10-09T08:16:37.398Z,20.75
2023-10-09T08:19:24.634Z,20.94
2023-10-09T08:22:10.665Z,21.01
2023-10-09T08:24:42.571Z,21.08
2023-10-09T08:27:48.071Z,21.02
2023-10-09T08:30:27.422Z,21.40
2023-10-09T08:35:48.830Z,21.60
2023-10-09T08:38:28.084Z,21.68
2023-10-09T08:40:59.495Z,21.97
2023-10-09T08:43:32.186Z,22.23
2023-10-09T08:46:04.795Z,22.46
2023-10-09T08:48:33.053Z,22.39
2023-10-09T08:51:07.600Z,22.45
2023-10-09T08:53:35.602Z,22.46
2023-10-09T08:56:05.708Z,22.82
2023-10-09T08:58:38.073Z,23.13
2023-10-09T09:01:06.114Z,22.86
2023-10-09T09:03:45.464Z,22.99
2023-10-09T09:06:16.028Z,23.15
2023-10-09T09:08:45.957Z,23.09
2023-10-09T09:11:24.353Z,23.20
2023-10-09T09:13:55.260Z,23.33
2023-10-09T09:16:31.188Z,23.44
2023-10-09T09:19:09.843Z,23.53
2023-10-09T09:21:48.944Z,23.74
2023-10-09T09:24:24.909Z,23.62
2023-10-09T09:27:12.726Z,23.73
2023-10-09T09:29:42.999Z,24.12
2023-10-09T09:32:19.445Z,24.09
2023-10-09T09:34:50.566Z,24.37
2023-10-09T09:37:32.929Z,24.31
2023-10-09T09:40:02.650Z,24.71
2023-10-09T09:42:32.933Z,24.78
2023-10-09T09:45:03.581Z,24.96
2023-10-09T09:47:37.031Z,24.95
2023-10-09T09:50:14.829Z,25.19
2023-10-09T09:52:42.206Z,25.28
2023-10-09T09:55:23.373Z,25.01
2023-10-09T09:57:53.193Z,25.27
2023-10-09T10:00:44.163Z,25.22
2023-10-09T10:03:20.815Z,25.26
2023-10-09T10:05:51.801Z,25.44
2023-10-09T10:08:21.832Z,25.51
2023-10-09T10:10:59.427Z,25.65
2023-10-09T10:13:42.112Z,25.69
2023-10-09T10:16:20.331Z,26.03
2023-10-09T10:19:01.304Z,26.33
2023-10-09T10:21:41.179Z,26.16
2023-10-09T10:24:30.060Z,26.21
2023-10-09T10:27:46.145Z,26.17
2023-10-09T10:30:19.883Z,26.34
2023-10-09T10:32:53.688Z,26.50
2023-10-09T10:35:33.380Z,26.80
2023-10-09T10:38:12.681Z,26.53
2023-10-09T10:40:41.648Z,26.78
2023-10-09T10:43:33.452Z,27.11
2023-10-09T10:46:27.317Z,27.31
2023-10-09T10:49:01.602Z,27.28
2023-10-09T10:51:41.692Z,27.47
2023-10-09T10:54:28.699Z,27.49
2023-10-09T10:56:58.930Z,27.59
2023-10-09T10:59:30.463Z,27.91
2023-10-09T11:01:58.757Z,27.95
2023-10-09T11:04:48.210Z,28.32
2023-10-09T11:07:25.773Z,28.40
2023-10-09T11:10:17.545Z,28.40
2023-10-09T11:12:46.701Z,28.65
2023-10-09T11:15:23.883Z,28.34
2023-10-09T11:18:28.182Z,28.41
2023-10-09T11:21:17.723Z,28.72
2023-10-09T11:23:54.277Z,28.66
2023-10-09T11:26:29.509Z,28.61
2023-10-09T11:29:14.921Z,29.02
2023-10-09T11:32:02.334Z,28.93
2023-10-09T11:34:30.959Z,28.99
2023-10-09T11:37:02.471Z,29.09
2023-10-09T11:39:35.793Z,29.02
2023-10-09T11:42:07.146Z,28.98
2023-10-09T11:44:40.610Z,29.54
2023-10-09T11:47:18.675Z,29.63
2023-10-09T11:50:02.863Z,29.09
2023-10-09T11:52:37.150Z,29.10
2023-10-09T11:55:16.038Z,29.23
2023-10-09T11:57:43.600Z,29.45
2023-10-09T12:00:30.079Z,29.85
2023-10-09T12:02:58.011Z,30.03
2023-10-09T12:05:29.323Z,29.85
2023-10-09T12:07:58.599Z,29.75
2023-10-09T12:10:26.973Z,30.19
2023-10-09T12:12:55.170Z,30.12
2023-10-09T12:15:22.590Z,29.74
2023-10-09T12:17:51.039Z,29.87
2023-10-09T12:20:33.817Z,29.83
2023-10-09T12:23:05.635Z,30.06
2023-10-09T12:25:34.630Z,29.97
2023-10-09T12:28:04.085Z,30.55
2023-10-09T12:30:32.498Z,30.36
2023-10-09T12:33:00.034Z,30.24
2023-10-09T12:35:29.274Z,30.40
2023-10-09T12:37:57.535Z,30.49
2023-10-09T12:40:32.255Z,30.14
2023-10-09T12:43:00.964Z,30.20
2023-10-09T12:45:33.297Z,30.09
2023-10-09T12:48:00.977Z,30.37
2023-10-09T12:50:29.115Z,30.42
2023-10-09T12:53:07.781Z,30.45
2023-10-09T12:55:45.401Z,30.76
2023-10-09T12:58:17.175Z,30.67
2023-10-09T13:00:50.716Z,31.00
2023-10-09T13:03:20.195Z,31.39
2023-10-09T13:05:59.562Z,31.32
2023-10-09T13:08:36.513Z,30.89
2023-10-09T13:11:12.195Z,31.14
2023-10-09T13:13:41.538Z,31.29
2023-10-09T13:16:14.206Z,31.19
2023-10-09T13:18:43.043Z,31.23
2023-10-09T13:21:10.454Z,31.15
2023-10-09T13:23:40.996Z,31.27
2023-10-09T13:26:31.405Z,31.36
2023-10-09T13:29:03.251Z,31.74
2023-10-09T13:31:35.792Z,32.07
2023-10-09T13:34:04.958Z,32.94
2023-10-09T13:36:34.976Z,35.14
2023-10-09T13:39:26.411Z,37.41
2023-10-09T13:42:00.233Z,37.85
2023-10-09T13:44:33.267Z,37.92
2023-10-09T13:47:03.218Z,37.20
2023-10-09T13:49:31.869Z,37.71
2023-10-09T13:52:02.319Z,37.38
2023-10-09T13:54:33.121Z,38.72
2023-10-09T13:57:01.613Z,40.10
2023-10-09T13:59:29.520Z,39.06
2023-10-09T14:01:57.633Z,39.21
2023-10-09T14:04:25.632Z,39.63
2023-10-09T14:06:58.304Z,41.26
2023-10-09T14:09:38.928Z,39.29
2023-10-09T14:12:07.993Z,39.79
2023-10-09T14:14:40.599Z,41.52
2023-10-09T14:17:14.570Z,41.67
2023-10-09T14:19:48.091Z,42.08
2023-10-09T14:22:17.315Z,41.40
2023-10-09T14:24:49.134Z,40.22
2023-10-09T14:27:20.801Z,41.70
2023-10-09T14:29:50.124Z,39.87
2023-10-09T14:32:17.747Z,42.03
2023-10-09T14:34:51.653Z,41.72
2023-10-09T14:37:20.495Z,40.70
2023-10-09T14:39:51.450Z,40.34
2023-10-09T14:42:21.345Z,40.63
2023-10-09T14:44:49.072Z,38.86
2023-10-09T14:47:17.159Z,39.63
2023-10-09T14:49:48.694Z,39.28
2023-10-09T14:52:21.302Z,39.38
2023-10-09T14:54:51.602Z,41.14
2023-10-09T14:57:19.598Z,39.43
2023-10-09T14:59:47.438Z,40.32
2023-10-09T15:02:16.023Z,38.77
2023-10-09T15:04:43.507Z,39.82
2023-10-09T15:07:11.781Z,40.24
2023-10-09T15:09:42.408Z,39.64
2023-10-09T15:12:10.056Z,37.91
2023-10-09T15:14:38.299Z,37.55
2023-10-09T15:17:08.188Z,37.27
2023-10-09T15:19:35.949Z,38.61
2023-10-09T15:22:03.350Z,39.54
2023-10-09T15:24:31.188Z,38.07
2023-10-09T15:26:59.293Z,37.72
2023-10-09T15:29:32.866Z,38.62
2023-10-09T15:32:05.676Z,39.19
2023-10-09T15:34:36.618Z,38.00
2023-10-09T15:37:10.575Z,38.58
2023-10-09T15:39:38.218Z,38.05
2023-10-09T15:42:07.787Z,38.95
2023-10-09T15:44:38.129Z,40.73
2023-10-09T15:47:09.879Z,40.40
2023-10-09T15:49:44.981Z,38.01
2023-10-09T15:52:15.728Z,38.07
2023-10-09T15:54:44.577Z,37.99
2023-10-09T15:57:13.877Z,37.18
2023-10-09T15:59:41.590Z,35.92
2023-10-09T16:02:09.136Z,35.48
2023-10-09T16:04:39.132Z,35.70
2023-10-09T16:07:08.736Z,35.31
2023-10-09T16:09:39.054Z,34.29
2023-10-09T16:12:07.728Z,33.83
2023-10-09T16:14:35.806Z,32.95
2023-10-09T16:17:04.463Z,32.35
2023-10-09T16:19:34.266Z,31.45
2023-10-09T16:22:05.079Z,31.28
2023-10-09T16:24:39.409Z,30.62
2023-10-09T16:27:09.192Z,30.25
2023-10-09T16:29:36.812Z,29.82
2023-10-09T16:32:04.603Z,29.51
2023-10-09T16:34:33.496Z,29.22
2023-10-09T16:37:01.608Z,29.08
2023-10-09T16:39:35.968Z,28.86
2023-10-09T16:42:05.847Z,28.70
2023-10-09T16:44:37.905Z,28.37
2023-10-09T16:47:05.688Z,28.32
2023-10-09T16:49:33.570Z,28.21
2023-10-09T16:52:00.952Z,27.99
2023-10-09T16:54:28.320Z,27.75
2023-10-09T16:56:58.727Z,27.60
2023-10-09T16:59:26.063Z,27.49
2023-10-09T17:01:55.047Z,27.41
2023-10-09T17:04:24.316Z,27.23
2023-10-09T17:06:52.713Z,26.97
2023-10-09T17:09:21.195Z,26.89
2023-10-09T17:11:53.236Z,26.91
2023-10-09T17:14:30.127Z,26.78
2023-10-09T17:16:59.873Z,26.77
2023-10-09T17:19:27.832Z,26.50
2023-10-09T17:21:57.806Z,26.44
2023-10-09T17:24:25.616Z,26.39
2023-10-09T17:26:54.621Z,26.20
2023-10-09T17:29:22.137Z,26.30
2023-10-09T17:31:50.213Z,26.21
2023-10-09T17:34:18.997Z,26.18
2023-10-09T17:36:50.395Z,26.00
2023-10-09T17:39:25.962Z,25.93
2023-10-09T17:41:55.148Z,25.64
2023-10-09T17:44:22.965Z,25.69
2023-10-09T17:46:50.939Z,25.75
2023-10-09T17:49:18.898Z,25.78
2023-10-09T17:51:48.867Z,25.87
2023-10-09T17:54:16.557Z,25.90
2023-10-09T17:56:45.667Z,25.73
2023-10-09T17:59:13.351Z,25.60
2023-10-09T18:01:41.024Z,25.47
2023-10-09T18:04:08.477Z,25.47
2023-10-09T18:06:37.767Z,25.43
2023-10-09T18:09:16.661Z,25.24
2023-10-09T18:11:45.404Z,25.30
2023-10-09T18:14:15.904Z,25.24
2023-10-09T18:16:44.203Z,25.28
2023-10-09T18:19:15.405Z,25.19
2023-10-09T18:21:43.772Z,25.15
2023-10-09T18:24:15.394Z,25.17
2023-10-09T18:26:45.166Z,25.05
2023-10-09T18:29:16.220Z,24.99
2023-10-09T18:31:43.896Z,25.04
2023-10-09T18:34:11.377Z,24.82
2023-10-09T18:36:40.057Z,24.81
2023-10-09T18:39:09.512Z,24.51
2023-10-09T18:41:37.015Z,24.66
2023-10-09T18:44:10.880Z,24.54
2023-10-09T18:46:39.233Z,24.50
2023-10-09T18:49:06.690Z,24.51
2023-10-09T18:51:35.668Z,24.47
2023-10-09T18:54:06.915Z,24.43
2023-10-09T18:56:36.991Z,24.31
2023-10-09T18:59:08.882Z,24.34
2023-10-09T19:01:37.576Z,24.31
2023-10-09T19:04:11.042Z,24.34
2023-10-09T19:06:39.145Z,24.33
2023-10-09T19:09:07.257Z,24.29
2023-10-09T19:11:39.956Z,24.19
2023-10-09T19:14:10.314Z,24.11
2023-10-09T19:16:37.841Z,24.11
2023-10-09T19:19:09.477Z,24.17
2023-10-09T19:21:38.001Z,24.09
2023-10-09T19:24:14.449Z,24.04
2023-10-09T19:26:43.585Z,24.03
2023-10-09T19:29:12.301Z,24.19
2023-10-09T19:31:40.155Z,24.17
2023-10-09T19:34:10.437Z,23.98
2023-10-09T19:36:39.643Z,23.87
2023-10-09T19:39:07.003Z,23.76
2023-10-09T19:41:36.826Z,23.68
2023-10-09T19:44:05.853Z,23.88
2023-10-09T19:46:38.812Z,23.70
2023-10-09T19:49:07.064Z,23.62
2023-10-09T19:51:34.933Z,23.70
2023-10-09T19:54:02.452Z,23.56
2023-10-09T19:56:32.989Z,23.64
2023-10-09T19:59:01.268Z,23.54
2023-10-09T20:01:29.291Z,23.47
2023-10-09T20:03:56.626Z,23.33
2023-10-09T20:06:25.082Z,23.19
2023-10-09T20:08:54.966Z,23.26
2023-10-09T20:11:24.046Z,23.20
2023-10-09T20:13:51.900Z,23.26
2023-10-09T20:16:20.091Z,23.26
2023-10-09T20:18:47.732Z,23.14
2023-10-09T20:21:15.313Z,23.09
2023-10-09T20:23:43.067Z,23.08
2023-10-09T20:26:18.212Z,22.95
2023-10-09T20:28:47.515Z,22.85
2023-10-09T20:31:15.770Z,22.78
2023-10-09T20:33:48.331Z,22.77
2023-10-09T20:36:17.340Z,22.67
2023-10-09T20:38:48.683Z,22.94
2023-10-09T20:41:17.297Z,22.56
2023-10-09T20:43:44.955Z,22.35
2023-10-09T20:46:13.339Z,22.43
2023-10-09T20:48:45.622Z,22.33
2023-10-09T20:51:14.649Z,22.49
2023-10-09T20:53:42.200Z,22.52
2023-10-09T20:56:11.897Z,22.36
2023-10-09T20:58:44.224Z,22.19
2023-10-09T21:01:18.393Z,22.03
2023-10-09T21:03:51.399Z,22.19
2023-10-09T21:06:24.752Z,22.04
2023-10-09T21:08:52.633Z,21.90
2023-10-09T21:11:20.408Z,21.78
2023-10-09T21:13:47.982Z,21.84
2023-10-09T21:16:16.992Z,21.93
2023-10-09T21:18:46.712Z,21.92
2023-10-09T21:21:15.806Z,21.94
2023-10-09T21:23:45.082Z,21.91
2023-10-09T21:26:23.166Z,21.88
2023-10-09T21:28:52.859Z,21.89
2023-10-09T21:31:22.963Z,21.82
2023-10-09T21:33:51.542Z,21.89
2023-10-09T21:36:20.272Z,21.90
2023-10-09T21:38:47.975Z,21.88
2023-10-09T21:41:23.051Z,21.78
2023-10-09T21:43:55.229Z,21.66
2023-10-09T21:46:26.750Z,21.60
2023-10-09T21:48:54.583Z,21.57
2023-10-09T21:51:22.666Z,21.59
2023-10-09T21:53:51.725Z,21.66
2023-10-09T21:56:21.334Z,21.72
2023-10-09T21:58:49.578Z,21.87
2023-10-09T22:01:20.564Z,21.73
2023-10-09T22:03:49.893Z,21.54
2023-10-09T22:06:17.736Z,21.36
2023-10-09T22:08:45.912Z,21.23
2023-10-09T22:11:13.648Z,21.47
2023-10-09T22:13:41.300Z,21.30
2023-10-09T22:16:09.531Z,21.20
2023-10-09T22:18:43.014Z,21.10
2023-10-09T22:21:11.863Z,21.19
2023-10-09T22:23:47.192Z,21.29
2023-10-09T22:26:16.117Z,21.37
2023-10-09T22:28:47.167Z,21.38
2023-10-09T22:31:16.799Z,21.20
2023-10-09T22:33:50.324Z,21.08
2023-10-09T22:36:42.361Z,21.14
2023-10-09T22:39:22.693Z,20.94
2023-10-09T22:41:51.304Z,20.81
2023-10-09T22:44:22.820Z,20.74
2023-10-09T22:46:52.832Z,20.87
2023-10-09T22:49:20.641Z,20.73
2023-10-09T22:51:51.865Z,20.65
2023-10-09T22:54:35.830Z,20.56
2023-10-09T22:57:06.741Z,20.59
2023-10-09T22:59:45.420Z,20.71
2023-10-09T23:02:44.244Z,20.82
2023-10-09T23:05:14.180Z,20.65
2023-10-09T23:07:42.930Z,20.58
2023-10-09T23:10:17.070Z,20.48
2023-10-09T23:12:48.728Z,20.68
2023-10-09T23:15:34.153Z,20.55
2023-10-09T23:18:22.189Z,20.68
2023-10-09T23:20:51.803Z,20.65
2023-10-09T23:23:28.577Z,20.59
2023-10-09T23:26:06.615Z,20.62
2023-10-09T23:28:38.225Z,20.34
2023-10-09T23:31:24.752Z,20.34
2023-10-09T23:33:54.086Z,20.17
2023-10-09T23:36:27.398Z,20.26
2023-10-09T23:39:11.124Z,20.41
2023-10-09T23:41:40.594Z,20.54
2023-10-09T23:44:11.366Z,20.43
2023-10-09T23:46:39.203Z,20.21
2023-10-09T23:49:07.946Z,20.19
2023-10-09T23:51:40.249Z,20.20
2023-10-09T23:54:11.855Z,20.09
2023-10-09T23:56:59.049Z,20.25
2023-10-09T23:59:51.597Z,19.95
